Time;durP1;ratioP1;P1;durP2;ratioP2;P2;SDS_P1;SDS_P2;PMS_P1;PMS_P2;Temp;Humidity;BMP_temperature;BMP_pressure;BME280_temperature;BME280_humidity;BME280_pressure;Samples;Min_cycle;Max_cycle;Signal;HPM_P1;HPM_P2
2021/03/10 07:59:55;;;;;;;41.83;30.00;;;7.90;94.20;;;;;;4893584;26;20488;-86
2021/03/10 08:02:21;;;;;;;39.80;30.60;;;8.00;94.30;;;;;;5064001;28;20444;-86
2021/03/10 08:04:55;;;;;;;41.93;28.30;;;7.80;94.10;;;;;;5056303;28;20465;-85
2021/03/10 08:07:22;;;;;;;37.97;28.40;;;7.80;94.10;;;;;;5069722;28;20506;-87
2021/03/10 08:09:50;;;;;;;41.97;29.47;;;7.70;94.30;;;;;;5053675;22;20489;-88
2021/03/10 08:12:19;;;;;;;38.30;29.37;;;7.70;94.50;;;;;;5023256;28;20442;-87
2021/03/10 08:14:46;;;;;;;39.90;28.80;;;7.90;94.70;;;;;;5026887;28;20954;-87
2021/03/10 08:17:22;;;;;;;38.10;29.13;;;8.00;94.20;;;;;;5023362;28;20450;-87
2021/03/10 08:19:52;;;;;;;42.33;29.10;;;8.10;94.00;;;;;;5018662;28;20503;-87
2021/03/10 08:22:20;;;;;;;36.60;28.00;;;8.20;93.70;;;;;;5018827;28;21016;-86
2021/03/10 08:24:46;;;;;;;35.07;28.80;;;8.30;93.40;;;;;;5021421;28;21014;-88
2021/03/10 08:27:13;;;;;;;37.60;28.60;;;8.40;93.30;;;;;;5015462;28;20461;-87
2021/03/10 08:29:46;;;;;;;38.70;27.33;;;8.40;93.20;;;;;;5007714;28;20478;-89
2021/03/10 08:32:24;;;;;;;37.77;28.60;;;8.40;93.00;;;;;;5000120;28;20451;-85
2021/03/10 08:34:59;;;;;;;41.37;30.13;;;8.50;93.00;;;;;;5007281;28;20616;-88
2021/03/10 08:37:26;;;;;;;39.03;28.50;;;8.60;92.70;;;;;;5031435;28;20447;-88
2021/03/10 08:39:52;;;;;;;36.70;26.27;;;8.50;92.60;;;;;;5042111;28;20461;-88
2021/03/10 08:42:19;;;;;;;42.30;29.77;;;8.60;92.40;;;;;;5032168;28;20449;-87
2021/03/10 08:44:46;;;;;;;36.33;27.50;;;8.70;92.30;;;;;;5053798;28;20464;-85
2021/03/10 08:47:14;;;;;;;40.47;29.03;;;9.00;92.40;;;;;;5031027;28;20437;-86
2021/03/10 08:49:43;;;;;;;37.10;26.93;;;9.30;91.80;;;;;;5028613;28;20465;-88
2021/03/10 08:52:12;;;;;;;36.47;26.60;;;9.50;91.00;;;;;;5036689;28;20438;-86
2021/03/10 08:54:45;;;;;;;34.07;27.90;;;9.60;90.80;;;;;;5030389;28;20548;-88
2021/03/10 08:57:11;;;;;;;40.47;27.43;;;10.00;90.20;;;;;;5031231;28;20450;-87
2021/03/10 08:59:38;;;;;;;34.80;27.33;;;10.40;89.10;;;;;;5027488;28;20458;-86
2021/03/10 09:02:05;;;;;;;34.23;27.50;;;10.50;87.20;;;;;;5021973;28;20537;-86
2021/03/10 09:04:32;;;;;;;34.90;26.53;;;10.40;86.60;;;;;;5031421;28;20438;-85
2021/03/10 09:07:00;;;;;;;32.60;25.50;;;10.60;86.50;;;;;;5039122;28;20583;-87
2021/03/10 09:09:27;;;;;;;33.10;26.63;;;10.80;85.90;;;;;;5038241;28;20508;-87
2021/03/10 09:11:56;;;;;;;32.90;26.43;;;11.00;84.50;;;;;;5032305;28;20446;-88
2021/03/10 09:14:23;;;;;;;31.33;24.17;;;11.20;83.60;;;;;;5020529;28;20473;-87
2021/03/10 09:16:54;;;;;;;33.50;26.27;;;11.50;82.80;;;;;;5036899;28;20450;-84
2021/03/10 09:19:34;;;;;;;31.93;25.77;;;11.60;81.90;;;;;;5028704;28;20461;-89
2021/03/10 09:22:16;;;;;;;36.03;27.23;;;12.00;80.90;;;;;;5023505;28;20454;-86
2021/03/10 09:24:55;;;;;;;33.13;26.00;;;12.20;79.70;;;;;;5018365;28;20438;-86
2021/03/10 09:27:24;;;;;;;35.43;28.20;;;12.50;79.20;;;;;;5022714;28;20442;-87
2021/03/10 09:29:51;;;;;;;33.93;27.40;;;12.60;77.80;;;;;;5028818;28;20472;-86
2021/03/10 09:32:17;;;;;;;31.30;26.60;;;12.60;77.50;;;;;;5024504;28;20449;-87
2021/03/10 09:34:47;;;;;;;33.40;26.63;;;12.50;77.30;;;;;;5026783;28;20513;-86
2021/03/10 09:37:14;;;;;;;34.17;26.53;;;12.30;77.20;;;;;;5027869;28;20442;-85
2021/03/10 09:39:47;;;;;;;30.30;24.07;;;12.20;77.90;;;;;;5023145;28;20472;-89
2021/03/10 09:45:38;;;;;;;30.60;24.63;;;11.80;78.20;;;;;;5022951;28;20427;-90
2021/03/10 09:48:38;;;;;;;33.83;26.93;;;12.00;78.50;;;;;;5028558;28;20494;-91
2021/03/10 09:51:20;;;;;;;29.47;24.23;;;12.60;78.10;;;;;;5036333;28;20474;-89
2021/03/10 09:53:56;;;;;;;28.50;23.30;;;12.80;75.00;;;;;;5037019;28;20466;-90
2021/03/10 09:56:33;;;;;;;30.10;24.37;;;12.50;74.00;;;;;;5038480;28;20482;-89
2021/03/10 09:59:12;;;;;;;26.93;21.30;;;12.00;73.30;;;;;;5035577;28;20473;-89
2021/03/10 10:02:00;;;;;;;27.07;22.40;;;11.70;74.30;;;;;;5036421;28;20470;-90
2021/03/10 10:04:51;;;;;;;28.90;23.30;;;11.40;75.20;;;;;;5036953;28;20450;-89
2021/03/10 10:07:27;;;;;;;28.53;23.10;;;11.00;77.70;;;;;;5037054;28;20526;-89
2021/03/10 10:10:13;;;;;;;28.90;21.27;;;10.70;78.00;;;;;;5037905;28;20451;-88
2021/03/10 10:13:02;;;;;;;27.83;22.07;;;10.80;78.20;;;;;;5034558;28;20478;-90
2021/03/10 10:21:26;;;;;;;24.60;18.30;;;11.20;76.00;;;;;;5029236;28;20470;-90
2021/03/10 10:24:22;;;;;;;22.83;18.03;;;11.30;75.30;;;;;;5012581;28;20457;-91
2021/03/10 10:27:13;;;;;;;22.77;18.70;;;11.80;73.60;;;;;;5022023;28;20484;-91
2021/03/10 10:29:45;;;;;;;18.50;15.17;;;12.10;70.50;;;;;;5030012;28;20481;-90
2021/03/10 10:42:38;;;;;;;13.73;11.43;;;14.60;61.50;;;;;;4938254;28;20587;-91
2021/03/10 10:45:07;;;;;;;17.87;14.70;;;16.70;56.40;;;;;;5000814;28;20452;-91
2021/03/10 10:47:33;;;;;;;16.83;14.13;;;18.30;53.40;;;;;;5017346;28;20536;-91
2021/03/10 10:50:06;;;;;;;15.47;12.50;;;18.20;50.00;;;;;;5006451;28;20445;-91
2021/03/10 10:52:55;;;;;;;14.67;10.63;;;17.60;49.60;;;;;;5006768;28;20477;-91
2021/03/10 10:58:20;;;;;;;12.60;10.07;;;16.20;49.80;;;;;;5019364;28;20478;-91
2021/03/10 11:00:57;;;;;;;14.70;8.93;;;15.20;50.40;;;;;;5008938;28;20477;-89
2021/03/10 11:39:59;;;;;;;8.57;7.67;;;13.70;51.60;;;;;;4827109;22;20755;-91
2021/03/10 11:42:30;;;;;;;10.30;8.63;;;14.50;50.40;;;;;;5026505;28;20447;-90
2021/03/10 11:45:06;;;;;;;9.77;7.70;;;15.10;49.60;;;;;;5026379;28;20673;-92
2021/03/10 11:47:35;;;;;;;9.97;8.23;;;15.50;48.20;;;;;;5032533;28;20442;-93
2021/03/10 11:50:02;;;;;;;9.17;8.00;;;15.20;47.70;;;;;;5019084;28;20471;-92
2021/03/10 11:52:29;;;;;;;8.10;6.07;;;14.80;48.10;;;;;;5016426;28;20444;-91
2021/03/10 11:54:56;;;;;;;8.07;6.73;;;14.50;48.60;;;;;;4998598;28;20500;-91
2021/03/10 11:57:23;;;;;;;8.53;7.27;;;14.50;48.80;;;;;;4999443;28;20458;-91
2021/03/10 12:00:03;;;;;;;8.30;6.77;;;14.60;48.80;;;;;;5000377;28;20463;-91
2021/03/10 12:02:38;;;;;;;8.70;7.80;;;14.50;48.40;;;;;;4994293;28;20542;-92
2021/03/10 12:05:06;;;;;;;7.60;6.90;;;14.50;49.00;;;;;;4991800;28;20463;-92
2021/03/10 12:07:45;;;;;;;11.10;6.70;;;14.60;48.10;;;;;;5002252;28;20440;-90
2021/03/10 12:10:22;;;;;;;8.60;6.30;;;14.60;48.30;;;;;;4990925;28;20479;-89
2021/03/10 12:12:49;;;;;;;8.03;7.10;;;14.70;48.10;;;;;;5001894;28;20473;-90
2021/03/10 12:15:16;;;;;;;7.80;7.00;;;14.10;48.30;;;;;;4990684;28;20460;-90
2021/03/10 12:17:43;;;;;;;8.10;7.30;;;13.90;48.80;;;;;;4988552;28;20476;-91
2021/03/10 12:20:10;;;;;;;7.47;6.67;;;14.10;49.10;;;;;;4997681;28;20466;-89
2021/03/10 12:22:38;;;;;;;10.07;9.03;;;14.40;48.80;;;;;;4980482;28;20440;-90
2021/03/10 12:25:05;;;;;;;8.97;7.93;;;14.90;48.20;;;;;;4977555;28;20455;-91
2021/03/10 12:27:32;;;;;;;10.80;8.67;;;15.10;47.40;;;;;;4978206;28;20459;-91
2021/03/10 12:29:59;;;;;;;8.70;7.57;;;16.20;47.00;;;;;;4978829;28;20461;-92
2021/03/10 12:32:26;;;;;;;8.90;7.33;;;17.00;45.30;;;;;;4975944;28;20460;-92
2021/03/10 12:34:53;;;;;;;9.57;8.57;;;17.50;44.20;;;;;;4985672;28;20444;-88
2021/03/10 12:37:20;;;;;;;8.40;5.40;;;17.40;43.50;;;;;;4978221;28;20440;-91
2021/03/10 12:39:46;;;;;;;6.17;5.57;;;17.90;43.70;;;;;;4987880;28;20488;-91
2021/03/10 12:42:14;;;;;;;7.30;5.23;;;18.10;42.10;;;;;;4980811;28;20474;-90
2021/03/10 12:44:50;;;;;;;9.10;6.57;;;18.40;41.60;;;;;;4975796;28;20445;-90
2021/03/10 12:47:23;;;;;;;8.73;7.10;;;17.70;41.30;;;;;;4994417;28;20455;-91
2021/03/10 12:49:57;;;;;;;8.00;6.80;;;16.60;42.20;;;;;;5000872;28;20581;-92
2021/03/10 12:52:45;;;;;;;16.70;9.50;;;16.10;43.20;;;;;;5002475;28;20431;-92
2021/03/10 12:55:13;;;;;;;8.13;6.40;;;15.70;44.60;;;;;;5010240;28;20468;-91
2021/03/10 12:57:39;;;;;;;7.03;6.17;;;15.30;45.00;;;;;;4990426;28;20445;-92
2021/03/10 13:00:10;;;;;;;7.33;6.07;;;15.00;45.80;;;;;;5011907;28;20523;-91
2021/03/10 13:02:36;;;;;;;7.93;7.13;;;14.80;47.00;;;;;;5002254;28;20430;-92
2021/03/10 13:05:03;;;;;;;6.53;5.57;;;15.00;46.60;;;;;;5001564;28;20434;-90
2021/03/10 13:10:13;;;;;;;6.90;5.90;;;14.20;46.80;;;;;;4983727;28;20471;-92
2021/03/10 13:12:39;;;;;;;6.47;5.70;;;14.00;47.90;;;;;;4973484;28;20537;-90
2021/03/10 13:15:08;;;;;;;7.57;6.27;;;13.60;47.50;;;;;;4974438;28;20459;-90
2021/03/10 13:17:34;;;;;;;8.27;6.47;;;14.10;47.90;;;;;;4964484;28;20441;-91
2021/03/10 13:20:00;;;;;;;9.37;6.20;;;14.20;47.10;;;;;;4963855;28;20989;-91
2021/03/10 13:22:27;;;;;;;7.90;5.80;;;14.20;47.50;;;;;;4983930;28;20452;-91
2021/03/10 13:24:54;;;;;;;8.53;5.50;;;14.20;48.00;;;;;;4971091;28;20466;-91
2021/03/10 13:27:20;;;;;;;10.43;6.00;;;14.20;47.60;;;;;;4985057;28;20467;-92
2021/03/10 13:29:47;;;;;;;6.00;5.40;;;14.10;47.50;;;;;;4990339;28;20452;-92
2021/03/10 13:32:15;;;;;;;8.10;6.30;;;14.80;47.50;;;;;;4986791;28;20459;-92
2021/03/10 13:34:43;;;;;;;9.03;6.20;;;15.90;46.00;;;;;;4992113;28;20555;-94
2021/03/10 13:37:17;;;;;;;8.03;7.30;;;16.40;43.90;;;;;;5009093;28;20458;-94
2021/03/10 13:39:46;;;;;;;7.57;6.77;;;16.30;44.20;;;;;;5010774;28;20473;-92
2021/03/10 13:42:13;;;;;;;8.17;7.37;;;16.90;43.90;;;;;;4990317;28;20489;-92
2021/03/10 13:44:39;;;;;;;6.27;5.73;;;17.50;43.10;;;;;;4991308;28;20439;-92
2021/03/10 13:47:06;;;;;;;7.03;6.30;;;17.50;42.50;;;;;;4994921;28;20510;-91
2021/03/10 13:49:36;;;;;;;6.97;6.27;;;17.40;42.50;;;;;;5003124;28;20463;-92
2021/03/10 13:52:05;;;;;;;8.23;7.10;;;17.20;42.20;;;;;;4982932;28;20967;-92
2021/03/10 13:54:31;;;;;;;8.10;6.57;;;16.10;42.90;;;;;;4978457;28;20468;-91
2021/03/10 13:56:58;;;;;;;8.50;7.30;;;15.50;43.70;;;;;;4984931;28;20452;-92
2021/03/10 13:59:25;;;;;;;7.10;5.83;;;15.30;44.60;;;;;;4982510;28;20490;-92
2021/03/10 14:01:54;;;;;;;6.17;5.17;;;15.00;44.90;;;;;;4988477;28;20453;-92
2021/03/10 14:04:21;;;;;;;7.80;6.30;;;14.90;45.40;;;;;;4995183;28;20455;-91
2021/03/10 14:06:48;;;;;;;7.27;5.63;;;15.00;45.50;;;;;;4992304;28;20465;-90
2021/03/10 14:09:24;;;;;;;5.97;5.20;;;14.90;45.50;;;;;;4998312;28;20470;-91
2021/03/10 14:11:50;;;;;;;5.53;5.03;;;14.70;45.80;;;;;;4973943;28;20520;-90
2021/03/10 14:14:17;;;;;;;6.67;5.37;;;15.80;45.40;;;;;;4966369;28;20534;-91
2021/03/10 14:16:45;;;;;;;6.83;5.50;;;16.30;43.40;;;;;;4974279;28;20482;-91
2021/03/10 14:19:14;;;;;;;6.90;5.20;;;17.10;43.00;;;;;;4989994;28;20478;-90
2021/03/10 14:24:50;;;;;;;5.53;5.03;;;17.80;41.60;;;;;;4978512;28;20481;-91
2021/03/10 14:27:36;;;;;;;6.17;5.37;;;17.80;41.20;;;;;;4983227;28;20467;-92
2021/03/10 14:33:16;;;;;;;7.50;6.70;;;18.30;39.40;;;;;;4960304;28;20461;-90
2021/03/10 14:35:46;;;;;;;8.20;7.40;;;16.70;40.10;;;;;;4963853;29;20595;-91
2021/03/10 14:38:13;;;;;;;9.90;7.90;;;15.00;42.40;;;;;;4961425;28;20485;-90
2021/03/10 14:40:40;;;;;;;8.83;7.30;;;13.90;45.10;;;;;;4974536;28;20493;-91
2021/03/10 14:43:07;;;;;;;7.57;6.37;;;13.50;46.50;;;;;;4975180;28;20457;-91
2021/03/10 15:01:07;;;;;;;9.63;5.87;;;12.80;48.30;;;;;;5669063;23;20501;-89
2021/03/10 15:03:34;;;;;;;7.83;6.20;;;13.00;48.20;;;;;;4945604;28;20526;-90
2021/03/10 15:06:00;;;;;;;5.90;5.17;;;13.20;47.90;;;;;;4960514;28;20493;-89
2021/03/10 15:08:27;;;;;;;8.17;6.57;;;13.30;47.50;;;;;;4956284;28;20446;-91
2021/03/10 15:10:54;;;;;;;10.90;5.20;;;13.50;47.50;;;;;;4946225;29;20461;-90
2021/03/10 15:13:23;;;;;;;8.73;6.53;;;14.40;46.80;;;;;;4953000;29;20474;-90
2021/03/10 15:15:50;;;;;;;8.20;5.80;;;15.20;45.10;;;;;;4943075;29;20522;-89
2021/03/10 15:18:18;;;;;;;7.53;6.73;;;15.30;44.80;;;;;;4948011;29;20489;-90
2021/03/10 15:20:45;;;;;;;7.43;5.80;;;14.60;44.20;;;;;;4944275;29;20563;-90
2021/03/10 15:23:13;;;;;;;8.27;5.70;;;14.10;45.30;;;;;;4948257;29;20444;-90
2021/03/10 15:25:40;;;;;;;8.50;5.80;;;14.00;45.70;;;;;;4948784;29;20458;-91
2021/03/10 15:28:06;;;;;;;10.63;6.90;;;14.10;45.90;;;;;;4949275;29;20558;-91
2021/03/10 15:30:33;;;;;;;6.90;6.13;;;14.30;46.50;;;;;;4947067;29;20556;-90
2021/03/10 15:33:00;;;;;;;7.20;6.00;;;13.90;45.70;;;;;;4943033;29;20456;-90
2021/03/10 15:35:29;;;;;;;7.43;6.17;;;13.50;46.40;;;;;;4943565;29;20444;-90
2021/03/10 15:37:56;;;;;;;5.83;5.10;;;13.70;47.90;;;;;;4943593;29;20454;-91
2021/03/10 15:40:23;;;;;;;6.80;5.67;;;13.80;47.50;;;;;;4948773;29;20439;-90
2021/03/10 15:42:52;;;;;;;5.73;5.07;;;13.70;47.10;;;;;;4950412;29;20891;-89
2021/03/10 15:45:20;;;;;;;6.57;5.23;;;13.30;47.00;;;;;;4947478;29;20456;-91
2021/03/10 15:47:47;;;;;;;9.40;5.50;;;13.20;47.40;;;;;;4946567;28;20542;-89
2021/03/10 15:50:20;;;;;;;7.43;5.83;;;13.00;47.60;;;;;;4950648;28;20495;-90
2021/03/10 15:52:49;;;;;;;7.97;6.13;;;12.90;47.90;;;;;;4959167;28;20515;-89
2021/03/10 15:55:15;;;;;;;9.70;5.90;;;12.70;48.50;;;;;;4957333;28;20454;-89
2021/03/10 15:57:42;;;;;;;11.13;6.27;;;12.60;48.30;;;;;;4955155;28;20450;-88
2021/03/10 16:00:10;;;;;;;9.37;5.73;;;12.60;49.00;;;;;;4955384;29;20731;-90
2021/03/10 16:02:36;;;;;;;6.87;6.17;;;12.50;48.80;;;;;;4956652;28;20463;-90
2021/03/10 16:05:04;;;;;;;10.73;6.17;;;12.40;49.00;;;;;;4951065;29;20449;-91
2021/03/10 16:07:31;;;;;;;6.40;5.27;;;12.20;49.40;;;;;;4948227;29;20445;-90
2021/03/10 16:09:58;;;;;;;7.87;5.10;;;12.10;49.60;;;;;;4950881;29;20456;-91
2021/03/10 16:12:25;;;;;;;6.60;5.40;;;12.00;50.20;;;;;;4952133;29;20470;-91
2021/03/10 16:14:57;;;;;;;7.53;5.53;;;11.90;49.90;;;;;;4953219;29;20501;-92
2021/03/10 16:17:23;;;;;;;7.17;5.47;;;11.80;50.30;;;;;;4958088;28;20453;-90
2021/03/10 16:19:50;;;;;;;5.80;5.20;;;11.70;50.40;;;;;;4960146;28;20537;-92
2021/03/10 16:22:16;;;;;;;6.67;5.77;;;11.60;50.50;;;;;;4957667;28;20466;-92
2021/03/10 16:24:42;;;;;;;6.20;4.83;;;11.50;50.50;;;;;;4955388;29;20450;-92
2021/03/10 16:27:10;;;;;;;13.60;5.53;;;11.40;51.10;;;;;;4950243;29;20449;-91
2021/03/10 16:29:37;;;;;;;7.90;5.20;;;11.30;51.60;;;;;;4948065;29;20476;-91
2021/03/10 16:32:04;;;;;;;7.70;5.83;;;11.30;51.60;;;;;;4949953;29;20990;-90
2021/03/10 16:34:31;;;;;;;7.60;6.60;;;11.30;52.30;;;;;;4961582;28;20438;-90
2021/03/10 16:36:57;;;;;;;9.10;6.20;;;11.20;51.90;;;;;;4963323;28;20482;-91
2021/03/10 16:39:31;;;;;;;9.70;6.20;;;11.10;52.20;;;;;;4963097;28;20481;-91
2021/03/10 16:41:57;;;;;;;8.43;6.73;;;11.10;52.90;;;;;;4966094;28;20473;-91
2021/03/10 16:44:39;;;;;;;8.83;4.57;;;11.00;52.60;;;;;;4963073;28;20440;-90
2021/03/10 16:47:09;;;;;;;7.80;6.30;;;10.90;52.90;;;;;;4971395;28;20827;-90
2021/03/10 16:49:38;;;;;;;8.73;5.90;;;10.90;53.20;;;;;;4979051;28;20480;-91
2021/03/10 16:52:06;;;;;;;9.57;7.47;;;10.90;53.50;;;;;;4969715;28;20480;-91
2021/03/10 16:54:36;;;;;;;9.40;7.00;;;10.90;53.30;;;;;;4962937;28;20449;-91
2021/03/10 16:57:10;;;;;;;7.40;6.40;;;10.80;53.40;;;;;;4962800;28;20456;-90
2021/03/10 16:59:43;;;;;;;6.10;5.50;;;10.70;53.60;;;;;;4967099;28;20512;-91
2021/03/10 17:02:11;;;;;;;6.80;5.40;;;10.70;54.10;;;;;;4974636;28;20464;-91
2021/03/10 17:04:40;;;;;;;7.73;6.23;;;10.70;54.50;;;;;;4972390;28;20476;-90
2021/03/10 17:07:10;;;;;;;9.67;6.20;;;10.60;54.50;;;;;;4970184;29;20450;-90
2021/03/10 17:09:37;;;;;;;7.30;6.23;;;10.50;54.30;;;;;;4963100;28;20432;-93
2021/03/10 17:12:13;;;;;;;11.97;7.40;;;10.50;54.80;;;;;;4961743;28;20493;-91
2021/03/10 17:14:41;;;;;;;7.67;6.27;;;10.40;55.00;;;;;;4972654;28;20436;-91
2021/03/10 17:17:18;;;;;;;8.20;6.07;;;10.30;55.20;;;;;;4974824;28;20437;-91
2021/03/10 17:19:56;;;;;;;8.60;5.97;;;10.30;55.40;;;;;;4948399;28;20481;-89
2021/03/10 17:22:29;;;;;;;10.57;7.50;;;10.20;55.60;;;;;;4975962;28;20479;-92
2021/03/10 17:24:58;;;;;;;10.40;6.60;;;10.10;55.80;;;;;;4977609;28;20549;-91
2021/03/10 17:27:26;;;;;;;7.20;6.37;;;10.10;55.90;;;;;;4968988;29;20483;-92
2021/03/10 17:30:03;;;;;;;8.87;6.37;;;10.00;55.80;;;;;;4973994;29;20434;-91
2021/03/10 17:32:34;;;;;;;7.73;6.20;;;10.00;55.90;;;;;;4969706;28;20476;-93
2021/03/10 17:35:12;;;;;;;8.27;6.70;;;9.90;57.10;;;;;;4970325;29;20442;-92
2021/03/10 17:37:45;;;;;;;8.73;7.23;;;9.80;57.40;;;;;;4968717;28;20432;-90
2021/03/10 17:40:22;;;;;;;11.27;7.47;;;9.80;57.60;;;;;;4981328;28;20496;-90
2021/03/10 17:42:52;;;;;;;11.60;7.70;;;9.80;57.60;;;;;;4979643;28;20433;-91
2021/03/10 17:45:27;;;;;;;7.10;6.13;;;9.70;57.50;;;;;;4964035;28;20441;-91
2021/03/10 17:48:16;;;;;;;9.60;6.40;;;9.80;57.80;;;;;;4972064;29;20516;-91
2021/03/10 17:50:48;;;;;;;7.73;6.10;;;9.70;57.90;;;;;;4973318;28;20475;-91
2021/03/10 17:53:16;;;;;;;8.67;6.40;;;9.70;57.80;;;;;;4969395;29;20453;-91
2021/03/10 17:56:07;;;;;;;9.47;6.33;;;9.70;57.80;;;;;;4978345;28;20612;-91
2021/03/10 17:59:12;;;;;;;11.03;6.80;;;9.70;58.00;;;;;;4978982;28;20480;-92
2021/03/10 18:02:18;;;;;;;12.20;7.60;;;9.70;58.20;;;;;;4977705;28;20464;-90
2021/03/10 18:04:47;;;;;;;7.20;6.40;;;9.70;58.20;;;;;;4973809;29;20421;-86
2021/03/10 18:07:20;;;;;;;10.10;7.13;;;9.70;58.60;;;;;;4967780;28;20532;-86
2021/03/10 18:09:48;;;;;;;10.67;7.70;;;9.70;59.10;;;;;;4953809;29;20723;-86
2021/03/10 18:12:19;;;;;;;11.20;8.93;;;9.70;58.70;;;;;;4971060;28;20516;-86
2021/03/10 18:14:46;;;;;;;16.33;10.43;;;9.70;58.80;;;;;;4971881;29;20464;-87
2021/03/10 18:17:49;;;;;;;15.90;11.63;;;9.70;58.90;;;;;;4975385;28;20449;-91
2021/03/10 18:56:51;;;;;;;17.20;10.63;;;9.20;62.00;;;;;;5073351;22;20502;-91
2021/03/10 18:59:25;;;;;;;17.90;11.80;;;9.20;61.90;;;;;;5024357;28;20458;-91
2021/03/10 19:02:14;;;;;;;14.50;12.00;;;9.10;62.20;;;;;;5028630;28;20481;-92
2021/03/10 19:05:18;;;;;;;18.63;13.67;;;9.10;62.30;;;;;;5017697;28;20455;-91
2021/03/10 19:13:10;;;;;;;16.80;13.40;;;9.10;62.90;;;;;;5308250;22;20576;-92
2021/03/10 19:15:51;;;;;;;22.53;14.93;;;9.00;63.30;;;;;;5031573;28;20454;-92
2021/03/10 19:18:24;;;;;;;22.27;14.53;;;8.90;63.80;;;;;;5026668;28;20494;-92
2021/03/10 19:20:57;;;;;;;28.73;16.17;;;8.90;64.10;;;;;;5029971;28;20473;-92
2021/03/10 19:23:24;;;;;;;19.80;12.93;;;8.90;64.20;;;;;;5032633;28;20458;-91
2021/03/10 19:25:52;;;;;;;22.53;16.20;;;8.90;64.30;;;;;;5077782;22;20553;-90
2021/03/10 19:28:29;;;;;;;22.60;13.43;;;8.90;64.30;;;;;;5037326;28;20461;-90
2021/03/10 19:42:44;;;;;;;24.20;15.50;;;8.60;65.90;;;;;;5030842;28;20460;-91
2021/03/10 19:45:12;;;;;;;27.30;15.20;;;8.50;66.60;;;;;;5031992;28;20508;-91
2021/03/10 19:47:41;;;;;;;21.53;13.57;;;8.40;66.90;;;;;;5038256;28;20538;-91
2021/03/10 20:32:23;;;;;;;20.87;16.40;;;8.60;67.60;;;;;;1481678;26;20466;-94
2021/03/10 20:45:32;;;;;;;20.63;15.40;;;8.60;67.60;;;;;;4977939;28;20466;-93
2021/03/10 20:48:22;;;;;;;28.40;15.07;;;8.50;67.40;;;;;;4982333;28;20452;-93
2021/03/10 20:51:19;;;;;;;21.53;15.67;;;8.60;67.30;;;;;;4973606;28;20484;-91
2021/03/10 20:54:21;;;;;;;20.50;16.43;;;8.50;67.60;;;;;;5033350;28;20485;-93
2021/03/10 21:00:11;;;;;;;21.87;16.63;;;8.50;67.80;;;;;;5035290;28;20489;-93
2021/03/10 21:03:29;;;;;;;21.03;17.00;;;8.50;68.00;;;;;;5034081;28;20829;-93
2021/03/10 21:08:52;;;;;;;22.10;16.47;;;8.50;68.00;;;;;;5376498;23;20485;-90
2021/03/10 21:11:25;;;;;;;22.63;16.37;;;8.40;68.10;;;;;;5040247;28;20565;-91
2021/03/10 21:13:58;;;;;;;21.27;16.50;;;8.40;68.20;;;;;;5019816;28;20450;-91
2021/03/10 21:16:35;;;;;;;22.13;15.40;;;8.40;68.40;;;;;;5019451;28;20437;-91
2021/03/10 21:19:22;;;;;;;19.40;17.20;;;8.40;68.70;;;;;;5013801;28;20470;-90
2021/03/10 21:21:48;;;;;;;24.13;16.53;;;8.40;69.00;;;;;;5015379;28;20466;-84
2021/03/10 21:27:27;;;;;;;29.47;17.90;;;8.40;69.00;;;;;;4951901;29;20473;-90
2021/03/10 21:35:30;;;;;;;21.33;16.40;;;8.30;70.00;;;;;;3303671;26;20477;-93
2021/03/10 21:38:22;;;;;;;20.07;17.57;;;8.30;70.20;;;;;;5046987;28;20464;-92
2021/03/10 21:41:19;;;;;;;25.67;17.60;;;8.20;70.30;;;;;;5049290;28;21211;-91
2021/03/10 21:58:04;;;;;;;;;;;;;;;;;;;;;
2021/03/10 22:01:26;;;;;;;28.60;18.70;;;8.20;71.40;;;;;;4913191;29;20487;-92
2021/03/10 22:07:47;;;;;;;25.40;17.77;;;8.20;71.70;;;;;;4914938;29;20451;-92
2021/03/10 22:11:16;;;;;;;25.50;18.20;;;8.20;71.70;;;;;;4890700;29;20475;-91
2021/03/10 22:14:51;;;;;;;26.03;16.10;;;8.10;71.90;;;;;;4868805;29;20459;-92
2021/03/10 22:21:56;;;;;;;21.60;15.83;;;8.20;71.60;;;;;;4856047;29;20485;-91
2021/03/10 22:28:35;;;;;;;;;;;;;;;;;;;;;
